Time;durP1;ratioP1;P1;durP2;ratioP2;P2;SDS_P1;SDS_P2;PMS_P1;PMS_P2;Temp;Humidity;BMP_temperature;BMP_pressure;BME280_temperature;BME280_humidity;BME280_pressure;Samples;Min_cycle;Max_cycle;Signal;HPM_P1;HPM_P2
2022/06/02 00:01:56;;;;;;;9.15;6.50;;;;;;;12.74;69.10;102121.19;4957115;28;20061;-65
2022/06/02 00:04:35;;;;;;;11.50;6.45;;;;;;;12.72;69.13;102119.38;4960518;28;20050;-64
2022/06/02 00:07:10;;;;;;;9.73;6.40;;;;;;;12.70;69.34;102107.97;4955918;28;20692;-64
2022/06/02 00:10:07;;;;;;;10.65;6.45;;;;;;;12.66;69.19;102119.22;4966306;28;20293;-64
2022/06/02 00:12:47;;;;;;;8.85;6.55;;;;;;;12.62;69.22;102120.88;4958626;28;20056;-65
2022/06/02 00:15:31;;;;;;;8.70;6.50;;;;;;;12.59;69.48;102116.44;4956491;28;20042;-64
2022/06/02 00:18:22;;;;;;;9.25;6.47;;;;;;;12.57;69.68;102123.34;4960843;28;20046;-65
2022/06/02 00:20:54;;;;;;;8.68;6.20;;;;;;;12.57;69.55;102118.13;4955995;28;20333;-66
2022/06/02 00:23:40;;;;;;;8.52;6.10;;;;;;;12.56;69.56;102123.34;4951259;28;20583;-64
2022/06/02 00:26:12;;;;;;;9.07;6.13;;;;;;;12.55;69.45;102124.19;4952759;28;20969;-66
2022/06/02 00:29:15;;;;;;;12.02;6.60;;;;;;;12.51;69.71;102132.78;4959690;28;20187;-67
2022/06/02 00:32:07;;;;;;;9.10;6.15;;;;;;;12.50;69.71;102129.28;4960129;28;20489;-64
2022/06/02 00:34:44;;;;;;;12.10;6.43;;;;;;;12.47;69.91;102131.84;4958349;28;20358;-65
2022/06/02 00:37:21;;;;;;;8.85;6.45;;;;;;;12.45;69.93;102132.63;4955108;28;20042;-64
2022/06/02 00:39:49;;;;;;;9.23;6.20;;;;;;;12.43;70.04;102130.00;4960270;28;20471;-65
2022/06/02 00:42:38;;;;;;;9.85;6.30;;;;;;;12.43;69.96;102127.38;4946544;28;20234;-65
2022/06/02 00:45:08;;;;;;;7.72;6.05;;;;;;;12.40;70.04;102131.63;4965799;28;20048;-65
2022/06/02 00:48:06;;;;;;;9.43;6.43;;;;;;;12.38;69.91;102122.88;4961358;28;20143;-65
2022/06/02 00:50:39;;;;;;;8.63;6.53;;;;;;;12.37;70.08;102127.22;4950351;28;20073;-65
2022/06/02 00:53:14;;;;;;;13.52;6.47;;;;;;;12.34;70.01;102123.63;4955037;28;20034;-66
2022/06/02 00:58:58;;;;;;;8.73;6.47;;;;;;;12.33;69.88;102125.34;4955271;28;20048;-64
2022/06/02 01:01:30;;;;;;;10.03;6.83;;;;;;;12.34;70.22;102129.75;4961753;28;20815;-65
2022/06/02 01:04:00;;;;;;;10.05;6.50;;;;;;;12.34;70.02;102126.25;4939019;28;20791;-64
2022/06/02 01:07:12;;;;;;;9.07;6.20;;;;;;;12.30;69.96;102127.91;4949994;28;20436;-66
2022/06/02 01:09:42;;;;;;;7.78;6.35;;;;;;;12.28;69.76;102136.53;4887237;29;21001;-65
2022/06/02 01:12:33;;;;;;;9.95;6.80;;;;;;;12.25;70.01;102139.97;4873608;28;20043;-65
2022/06/02 01:15:36;;;;;;;8.98;6.40;;;;;;;12.22;69.87;102142.50;4920515;28;21480;-66
2022/06/02 01:18:04;;;;;;;8.85;6.53;;;;;;;12.20;70.04;102139.81;4949155;28;20164;-66
2022/06/02 01:20:30;;;;;;;9.10;6.57;;;;;;;12.20;69.97;102146.78;4957677;28;20046;-64
2022/06/02 01:23:21;;;;;;;12.30;7.03;;;;;;;12.25;70.06;102147.81;4957314;28;20053;-65
2022/06/02 01:26:12;;;;;;;9.63;7.05;;;;;;;12.30;70.50;102140.97;4961723;28;20054;-65
2022/06/02 01:28:38;;;;;;;10.88;7.03;;;;;;;12.39;70.79;102143.81;4971162;28;20508;-65
2022/06/02 01:31:24;;;;;;;10.07;7.10;;;;;;;12.46;70.79;102145.75;4965795;28;20038;-65
2022/06/02 01:34:16;;;;;;;10.25;7.13;;;;;;;12.52;70.92;102142.41;4946378;28;20082;-66
2022/06/02 01:36:58;;;;;;;9.82;7.18;;;;;;;12.52;70.62;102139.78;4921355;28;20510;-65
2022/06/02 01:39:39;;;;;;;9.60;7.05;;;;;;;12.51;70.61;102143.25;4968113;28;20269;-66
2022/06/02 01:42:13;;;;;;;9.55;6.10;;;;;;;12.45;70.29;102141.34;4943201;28;20048;-65
2022/06/02 01:44:58;;;;;;;;;;;;;;;12.38;70.15;102143.81;4961191;28;20133;-65
2022/06/02 01:47:37;;;;;;;8.27;6.27;;;;;;;12.35;69.59;102148.94;4952217;28;19918;-66
2022/06/02 01:50:29;;;;;;;10.93;6.82;;;;;;;12.28;69.80;102150.50;4953037;28;20490;-67
2022/06/02 01:53:24;;;;;;;8.73;6.20;;;;;;;12.27;69.92;102150.44;4969096;28;20465;-66
2022/06/02 01:55:55;;;;;;;8.73;6.38;;;;;;;12.31;70.05;102157.56;4954746;28;20034;-66
2022/06/02 01:58:42;;;;;;;11.05;7.07;;;;;;;12.35;70.53;102144.59;4955998;28;20049;-65
2022/06/02 02:01:33;;;;;;;9.95;7.57;;;;;;;12.43;71.00;102140.47;4964917;28;20050;-66
2022/06/02 02:04:27;;;;;;;12.35;7.93;;;;;;;12.53;71.04;102142.44;4952619;28;20240;-65
2022/06/02 02:07:11;;;;;;;12.55;8.00;;;;;;;12.61;70.91;102140.03;4966331;28;20057;-66
2022/06/02 02:09:48;;;;;;;11.38;8.00;;;;;;;12.68;71.07;102147.19;4963461;28;20030;-66
2022/06/02 02:12:38;;;;;;;10.85;7.35;;;;;;;12.76;71.04;102142.13;4944739;28;20233;-65
2022/06/02 02:15:45;;;;;;;12.63;7.55;;;;;;;12.78;70.80;102143.06;4966886;28;20054;-65
2022/06/02 02:18:17;;;;;;;10.35;7.70;;;;;;;12.84;70.61;102145.84;4955003;28;20109;-66
2022/06/02 02:20:50;;;;;;;10.75;7.32;;;;;;;12.86;70.59;102147.66;4961691;28;20052;-65
2022/06/02 02:23:21;;;;;;;10.32;7.60;;;;;;;12.83;70.47;102144.94;4963420;28;20050;-65
2022/06/02 02:26:08;;;;;;;9.20;7.07;;;;;;;12.83;70.41;102144.06;4962655;28;20108;-66
2022/06/02 02:28:41;;;;;;;10.20;7.50;;;;;;;12.76;70.60;102148.25;4959400;28;20535;-66
2022/06/02 02:31:09;;;;;;;10.73;7.63;;;;;;;12.73;70.23;102153.44;4964260;28;20099;-67
2022/06/02 02:34:15;;;;;;;10.55;7.55;;;;;;;12.66;70.27;102150.59;4958221;28;20381;-65
2022/06/02 02:37:14;;;;;;;11.40;8.05;;;;;;;12.59;69.94;102154.81;4958983;28;20053;-64
2022/06/02 02:39:57;;;;;;;10.35;7.05;;;;;;;12.54;69.91;102153.81;4962480;28;20057;-65
2022/06/02 02:42:51;;;;;;;8.95;6.93;;;;;;;12.44;69.79;102152.66;4951640;28;20038;-65
2022/06/02 02:45:41;;;;;;;10.40;7.45;;;;;;;12.33;69.89;102148.88;4954522;28;20565;-66
2022/06/02 02:48:09;;;;;;;11.50;7.93;;;;;;;12.26;69.98;102144.34;4953791;28;20093;-66
2022/06/02 02:50:53;;;;;;;10.57;7.43;;;;;;;12.22;69.90;102155.56;4964117;28;20148;-67
2022/06/02 02:53:26;;;;;;;9.83;7.60;;;;;;;12.16;69.94;102152.78;4960083;28;20082;-66
2022/06/02 02:56:11;;;;;;;11.55;7.82;;;;;;;12.11;69.78;102157.00;4961882;28;20717;-66
2022/06/02 02:58:55;;;;;;;10.23;7.50;;;;;;;12.04;69.96;102155.06;4963356;28;20132;-66
2022/06/02 03:01:56;;;;;;;11.77;7.68;;;;;;;12.03;69.93;102155.91;4960439;28;21484;-64
2022/06/02 03:04:34;;;;;;;11.80;7.50;;;;;;;11.99;69.72;102152.34;4955755;28;20096;-66
2022/06/02 03:07:00;;;;;;;11.57;8.18;;;;;;;11.93;70.08;102156.50;4964608;28;20064;-67
2022/06/02 03:10:04;;;;;;;10.88;7.75;;;;;;;11.88;69.98;102166.81;4965618;28;20042;-67
2022/06/02 03:12:45;;;;;;;11.68;7.65;;;;;;;11.87;70.16;102159.81;4931333;28;20053;-66
2022/06/02 03:15:16;;;;;;;11.07;8.15;;;;;;;11.80;70.04;102157.88;4963910;28;20124;-66
2022/06/02 03:17:58;;;;;;;11.18;8.00;;;;;;;11.79;69.90;102158.72;4955358;28;20050;-66
2022/06/02 03:20:32;;;;;;;11.93;7.47;;;;;;;11.78;70.16;102160.44;4962860;28;20120;-65
2022/06/02 03:22:57;;;;;;;11.07;7.85;;;;;;;11.76;70.27;102161.25;4961683;28;20545;-67
2022/06/02 03:25:39;;;;;;;12.77;8.90;;;;;;;11.75;70.62;102162.97;4964530;28;20153;-67
2022/06/02 03:28:29;;;;;;;13.45;8.82;;;;;;;11.73;70.22;102156.81;4952812;28;20085;-66
2022/06/02 03:30:54;;;;;;;12.85;8.55;;;;;;;11.70;70.52;102161.94;4962363;28;20105;-65
2022/06/02 03:33:35;;;;;;;11.95;8.38;;;;;;;11.68;70.65;102160.97;4960920;28;20045;-67
2022/06/02 03:36:20;;;;;;;11.48;8.23;;;;;;;11.66;70.63;102160.03;4960175;28;20044;-66
2022/06/02 03:39:06;;;;;;;12.60;8.52;;;;;;;11.65;70.41;102165.22;4959330;28;20432;-67
2022/06/02 03:41:56;;;;;;;12.90;9.00;;;;;;;11.66;70.79;102167.00;4967987;28;20052;-66
2022/06/02 03:44:41;;;;;;;12.88;8.70;;;;;;;11.67;70.59;102174.00;4957558;28;20057;-67
2022/06/02 03:47:42;;;;;;;13.13;9.07;;;;;;;11.66;70.71;102169.59;4965593;28;20046;-66
2022/06/02 03:50:26;;;;;;;14.65;9.15;;;;;;;11.69;70.91;102174.94;4953253;28;20192;-65
2022/06/02 03:53:15;;;;;;;13.63;8.90;;;;;;;11.69;70.83;102181.06;4964238;28;20037;-65
2022/06/02 03:56:15;;;;;;;12.48;8.75;;;;;;;11.72;70.69;102177.63;4968778;28;20061;-66
2022/06/02 03:59:19;;;;;;;13.75;8.73;;;;;;;11.76;70.93;102180.44;4903502;28;20750;-65
2022/06/02 04:01:59;;;;;;;13.30;8.80;;;;;;;11.76;70.74;102183.03;4915095;28;20050;-66
2022/06/02 04:05:11;;;;;;;15.05;9.68;;;;;;;11.78;71.13;102181.34;4964501;28;20045;-66
2022/06/02 04:08:00;;;;;;;11.95;8.88;;;;;;;11.83;70.85;102189.34;4963510;28;20042;-66
2022/06/02 04:10:51;;;;;;;14.35;9.52;;;;;;;11.85;70.89;102190.25;4959740;28;20156;-67
2022/06/02 04:13:59;;;;;;;12.57;9.05;;;;;;;11.89;71.12;102181.66;4961076;28;20516;-66
2022/06/02 04:16:43;;;;;;;13.73;9.38;;;;;;;11.95;71.14;102188.81;4962557;28;20929;-65
2022/06/02 04:22:39;;;;;;;14.00;9.52;;;;;;;12.08;71.26;102196.13;4948301;28;20320;-67
2022/06/02 04:25:19;;;;;;;12.75;9.20;;;;;;;12.11;71.01;102201.44;4961505;28;20030;-66
2022/06/02 04:27:50;;;;;;;14.27;9.48;;;;;;;12.16;71.07;102198.13;4967689;28;20046;-66
2022/06/02 04:30:23;;;;;;;14.70;9.93;;;;;;;12.24;71.44;102200.06;4950856;28;20406;-66
2022/06/02 04:32:56;;;;;;;17.60;10.07;;;;;;;12.37;71.31;102203.06;4961817;28;20717;-66
2022/06/02 04:35:59;;;;;;;13.57;9.60;;;;;;;12.49;71.43;102207.72;4968405;28;20220;-66
2022/06/02 04:38:42;;;;;;;15.07;10.65;;;;;;;12.66;71.68;102210.78;4957628;28;20417;-66
2022/06/02 04:41:16;;;;;;;15.35;10.13;;;;;;;12.88;71.68;102215.72;4958862;28;20387;-67
2022/06/02 04:44:07;;;;;;;14.10;10.23;;;;;;;13.19;71.66;102225.25;4957581;28;20042;-66
2022/06/02 04:46:48;;;;;;;13.43;9.55;;;;;;;13.59;71.28;102225.34;4954775;28;20220;-66
2022/06/02 04:49:38;;;;;;;9.60;7.60;;;;;;;14.57;67.65;102230.91;4958368;28;20042;-66
2022/06/02 04:52:11;;;;;;;8.68;7.00;;;;;;;15.75;61.74;102219.69;4955500;28;20036;-69
2022/06/02 04:55:06;;;;;;;10.68;7.40;;;;;;;17.09;56.96;102218.53;4965881;28;20112;-67
2022/06/02 04:58:29;;;;;;;8.70;7.40;;;;;;;18.60;53.50;102222.88;4952729;28;20049;-67
2022/06/02 05:00:54;;;;;;;10.38;7.50;;;;;;;19.54;50.06;102216.72;4915399;28;20308;-66
2022/06/02 05:03:37;;;;;;;8.68;6.80;;;;;;;19.82;48.13;102221.06;4916995;28;20635;-67
2022/06/02 05:06:27;;;;;;;9.20;7.50;;;;;;;19.67;49.06;102224.63;4917132;28;20137;-67
2022/06/02 05:08:59;;;;;;;9.52;7.72;;;;;;;19.03;49.55;102224.66;4943177;28;20046;-66
2022/06/02 05:11:39;;;;;;;10.27;7.68;;;;;;;18.52;51.66;102230.75;4936586;28;20655;-67
2022/06/02 05:14:39;;;;;;;10.68;8.20;;;;;;;17.83;53.30;102232.25;4935543;28;20046;-68
2022/06/02 05:17:07;;;;;;;10.35;8.60;;;;;;;17.56;54.77;102220.66;4942179;28;20266;-66
2022/06/02 05:20:03;;;;;;;10.73;8.77;;;;;;;17.06;56.21;102236.97;4942733;28;20046;-68
2022/06/02 05:22:53;;;;;;;10.50;8.50;;;;;;;16.95;56.67;102238.63;4944488;28;20229;-66
2022/06/02 05:25:32;;;;;;;11.38;9.10;;;;;;;16.71;57.64;102243.69;4939220;28;20046;-66
2022/06/02 05:28:24;;;;;;;12.60;9.10;;;;;;;16.61;58.29;102243.56;4948205;28;20373;-65
2022/06/02 05:31:02;;;;;;;10.50;8.88;;;;;;;16.77;57.53;102247.22;4949878;28;20046;-67
2022/06/02 05:33:48;;;;;;;13.50;9.57;;;;;;;16.62;57.34;102244.44;4941266;28;20092;-66
2022/06/02 05:36:32;;;;;;;15.68;9.93;;;;;;;16.73;58.19;102242.81;4937798;28;20180;-66
2022/06/02 05:39:02;;;;;;;11.48;8.88;;;;;;;16.94;56.75;102242.13;4950761;28;20082;-68
2022/06/02 05:41:56;;;;;;;11.27;9.18;;;;;;;17.19;56.24;102244.13;4943221;28;20050;-66
2022/06/02 05:44:46;;;;;;;10.48;8.93;;;;;;;17.62;56.38;102249.72;4944062;28;20046;-67
2022/06/02 05:47:30;;;;;;;10.07;7.57;;;;;;;17.82;54.29;102240.16;4945750;28;20540;-67
2022/06/02 05:50:06;;;;;;;9.70;8.38;;;;;;;18.08;52.97;102250.84;4933938;28;20081;-65
2022/06/02 05:52:56;;;;;;;12.18;8.52;;;;;;;17.95;53.29;102254.28;4947869;28;20034;-66
2022/06/02 05:55:49;;;;;;;11.35;8.18;;;;;;;18.71;51.33;102247.56;4950973;28;20103;-65
2022/06/02 05:58:23;;;;;;;10.32;7.53;;;;;;;20.81;46.55;102245.25;4941668;28;20298;-66
2022/06/02 06:00:52;;;;;;;8.48;6.40;;;;;;;22.11;42.50;102245.81;4946930;28;20054;-65
2022/06/02 06:03:20;;;;;;;9.25;6.20;;;;;;;23.04;40.39;102242.72;4948744;28;20347;-66
2022/06/02 06:06:18;;;;;;;8.43;6.65;;;;;;;24.57;38.38;102244.19;4964114;28;20521;-66
2022/06/02 06:09:15;;;;;;;8.13;5.57;;;;;;;25.26;35.19;102248.72;4971072;28;20580;-66
2022/06/02 06:12:09;;;;;;;7.63;6.80;;;;;;;25.23;36.30;102247.94;4960447;28;20291;-66
2022/06/02 06:14:48;;;;;;;6.95;5.28;;;;;;;24.60;35.88;102237.88;4961030;28;20042;-66
2022/06/02 06:17:32;;;;;;;7.70;5.97;;;;;;;25.64;34.48;102241.53;4958064;28;20049;-65
2022/06/02 06:20:07;;;;;;;6.75;5.38;;;;;;;25.63;34.60;102240.63;4949691;28;20535;-66
2022/06/02 06:23:08;;;;;;;7.63;6.53;;;;;;;25.82;34.71;102247.22;4950381;28;20124;-64
2022/06/02 06:25:50;;;;;;;6.82;4.95;;;;;;;25.68;34.29;102246.72;4969467;28;20535;-67
2022/06/02 06:28:19;;;;;;;5.97;5.10;;;;;;;25.64;34.78;102245.06;4951931;28;20472;-67
2022/06/02 06:30:47;;;;;;;6.32;5.00;;;;;;;26.02;33.36;102257.34;4958696;28;20050;-65
2022/06/02 06:33:24;;;;;;;6.20;5.30;;;;;;;26.28;32.40;102258.41;4959431;28;20395;-66
2022/06/02 06:36:01;;;;;;;6.18;4.88;;;;;;;26.17;33.61;102251.53;4962451;28;21036;-67
2022/06/02 06:38:35;;;;;;;7.47;5.18;;;;;;;25.66;33.71;102248.59;4968018;28;20778;-65
2022/06/02 06:41:17;;;;;;;7.75;5.68;;;;;;;25.42;33.87;102258.09;4962490;28;20049;-64
2022/06/02 06:43:56;;;;;;;7.57;5.30;;;;;;;25.64;35.01;102250.41;4957496;28;20271;-65
2022/06/02 06:46:30;;;;;;;7.55;5.78;;;;;;;26.53;33.18;102254.91;4958791;28;20149;-66
2022/06/02 06:49:00;;;;;;;8.82;6.22;;;;;;;25.58;33.97;102252.38;4961171;28;20050;-65
2022/06/02 06:51:31;;;;;;;8.23;6.22;;;;;;;23.83;37.42;102259.94;4970273;28;20274;-66
2022/06/02 06:54:18;;;;;;;8.35;6.40;;;;;;;24.09;36.21;102272.72;4947814;28;20081;-66
2022/06/02 06:56:57;;;;;;;6.82;4.88;;;;;;;23.99;36.06;102265.81;4972592;28;20496;-65
2022/06/02 06:59:47;;;;;;;7.65;5.57;;;;;;;22.30;38.92;102278.34;4961840;28;20412;-65
2022/06/02 07:02:34;;;;;;;9.57;6.60;;;;;;;20.74;42.20;102287.75;4950120;28;20971;-65
2022/06/02 07:05:20;;;;;;;7.57;5.40;;;;;;;20.99;41.53;102286.66;4969964;28;20061;-65
2022/06/02 07:08:04;;;;;;;10.18;5.50;;;;;;;20.44;42.85;102284.34;4967514;28;20588;-66
2022/06/02 07:10:59;;;;;;;8.30;6.47;;;;;;;20.62;44.54;102288.66;4961722;28;20103;-65
2022/06/02 07:13:50;;;;;;;10.32;6.10;;;;;;;22.66;39.21;102292.91;4958302;28;20044;-65
2022/06/02 07:16:29;;;;;;;7.10;5.40;;;;;;;24.12;35.92;102290.44;4963757;28;20033;-65
2022/06/02 07:19:16;;;;;;;10.35;6.30;;;;;;;25.86;33.87;102285.41;4969808;28;20538;-64
2022/06/02 07:21:56;;;;;;;9.13;6.07;;;;;;;26.72;34.58;102294.47;4964766;28;20041;-66
2022/06/02 07:24:40;;;;;;;7.65;5.75;;;;;;;27.73;29.96;102285.75;4960477;28;20164;-66
2022/06/02 07:27:43;;;;;;;8.00;4.50;;;;;;;27.44;29.20;102299.28;4970075;28;20403;-65
2022/06/02 07:30:30;;;;;;;5.80;4.30;;;;;;;27.54;28.79;102291.81;4953443;28;20041;-65
2022/06/02 07:33:18;;;;;;;7.68;4.30;;;;;;;27.05;29.89;102298.78;4967747;28;20049;-65
2022/06/02 07:36:05;;;;;;;6.15;4.50;;;;;;;27.58;29.25;102301.50;4961725;28;20320;-65
2022/06/02 07:39:08;;;;;;;5.90;4.30;;;;;;;27.41;30.41;102300.25;4964384;28;20140;-65
2022/06/02 07:42:19;;;;;;;7.80;4.40;;;;;;;28.33;28.74;102300.53;4964236;28;20041;-65
2022/06/02 07:45:03;;;;;;;5.82;4.22;;;;;;;28.93;26.26;102307.13;4939546;28;20048;-65
2022/06/02 07:48:13;;;;;;;4.70;4.20;;;;;;;27.73;26.78;102303.66;4974414;28;20477;-65
2022/06/02 07:50:51;;;;;;;4.90;3.70;;;;;;;28.30;26.60;102307.84;4956646;28;20049;-65
2022/06/02 07:53:31;;;;;;;5.32;4.10;;;;;;;27.58;30.01;102307.72;4964374;28;20648;-65
2022/06/02 07:56:27;;;;;;;7.10;3.65;;;;;;;29.31;26.13;102300.19;4960442;28;20096;-65
2022/06/02 07:59:06;;;;;;;5.20;3.30;;;;;;;29.80;24.63;102299.84;4970358;28;20050;-66
2022/06/02 08:01:50;;;;;;;5.63;3.17;;;;;;;29.52;26.64;102314.56;4962854;28;21074;-64
2022/06/02 08:04:33;;;;;;;6.60;3.85;;;;;;;30.02;25.13;102310.53;4958425;28;20609;-67
2022/06/02 08:07:12;;;;;;;5.82;4.68;;;;;;;29.04;26.56;102316.50;4971490;28;20128;-64
2022/06/02 08:09:57;;;;;;;7.80;4.75;;;;;;;26.55;30.08;102325.31;4962245;28;20547;-65
2022/06/02 08:12:41;;;;;;;9.65;5.28;;;;;;;24.70;32.81;102324.78;4956273;28;20104;-66
2022/06/02 08:15:25;;;;;;;;;;;;;;;23.30;35.80;102329.19;4969817;28;20058;-65
2022/06/02 08:18:03;;;;;;;5.53;3.95;;;;;;;22.95;36.84;102325.31;4969114;28;20288;-66
2022/06/02 08:21:18;;;;;;;5.55;4.82;;;;;;;22.20;37.87;102330.69;4970719;28;20124;-65
2022/06/02 08:23:52;;;;;;;7.85;6.38;;;;;;;21.84;39.47;102331.94;4962040;28;20121;-65
2022/06/02 08:26:26;;;;;;;8.20;6.85;;;;;;;21.45;40.01;102334.97;4954468;28;20678;-64
2022/06/02 08:29:38;;;;;;;8.85;6.95;;;;;;;21.07;41.70;102327.28;4963275;28;20436;-66
2022/06/02 08:32:37;;;;;;;9.18;7.50;;;;;;;20.93;41.91;102330.00;4955202;28;20061;-66
2022/06/02 08:35:26;;;;;;;10.77;6.07;;;;;;;21.30;40.21;102333.31;4953148;28;20042;-65
2022/06/02 08:38:10;;;;;;;8.02;6.25;;;;;;;21.39;40.79;102325.31;4955440;28;20379;-65
2022/06/02 08:40:55;;;;;;;7.53;5.10;;;;;;;21.98;37.66;102334.50;4966072;28;20222;-63
2022/06/02 08:43:50;;;;;;;8.05;5.57;;;;;;;21.67;40.03;102330.34;4966706;28;20124;-64
2022/06/02 08:47:00;;;;;;;8.57;5.60;;;;;;;21.19;38.41;102335.19;4954949;28;20496;-64
2022/06/02 08:50:10;;;;;;;8.25;5.57;;;;;;;21.21;41.33;102335.19;4961956;28;20420;-67
2022/06/02 08:52:54;;;;;;;6.57;4.68;;;;;;;21.05;41.08;102334.34;4926659;28;20064;-64
2022/06/02 08:55:25;;;;;;;;;;;;;;;20.90;39.89;102335.34;4965464;28;20091;-64
2022/06/02 08:58:25;;;;;;;7.00;5.40;;;;;;;21.10;42.41;102342.31;4962728;28;19928;-64
2022/06/02 09:01:06;;;;;;;6.47;4.20;;;;;;;21.88;39.20;102340.78;4964451;28;20050;-64
2022/06/02 09:03:50;;;;;;;5.65;4.35;;;;;;;22.48;37.28;102341.00;4967095;28;20050;-65
2022/06/02 09:06:36;;;;;;;7.43;5.28;;;;;;;22.07;36.47;102342.38;4954491;28;20487;-66
2022/06/02 09:09:23;;;;;;;7.35;5.13;;;;;;;22.50;36.27;102349.84;4964575;28;20057;-65
2022/06/02 09:11:56;;;;;;;6.85;5.65;;;;;;;22.17;36.34;102337.84;4969153;28;20448;-65
2022/06/02 09:14:44;;;;;;;6.05;4.60;;;;;;;22.98;35.02;102338.56;4960384;28;20075;-66
2022/06/02 09:17:41;;;;;;;9.98;5.70;;;;;;;22.98;34.36;102348.34;4962496;28;20040;-65
2022/06/02 09:20:19;;;;;;;6.57;5.28;;;;;;;22.23;38.45;102348.38;4954999;28;20045;-64
2022/06/02 09:23:07;;;;;;;7.50;5.50;;;;;;;21.90;36.68;102349.59;4948879;28;20042;-66
2022/06/02 09:25:57;;;;;;;7.65;4.55;;;;;;;22.09;36.90;102350.31;4966183;28;20184;-64
2022/06/02 09:28:56;;;;;;;6.55;4.85;;;;;;;21.59;38.53;102340.19;4962850;28;20046;-65
2022/06/02 09:31:41;;;;;;;7.63;5.50;;;;;;;20.33;39.16;102343.56;4961478;28;20042;-66
2022/06/02 09:34:31;;;;;;;7.60;5.38;;;;;;;21.06;37.79;102342.31;4955532;28;20100;-64
2022/06/02 09:37:40;;;;;;;8.38;6.07;;;;;;;21.56;38.94;102341.06;4961296;28;20532;-64
2022/06/02 09:40:43;;;;;;;6.20;5.10;;;;;;;21.63;36.48;102345.44;4951299;28;20060;-64
2022/06/02 09:43:27;;;;;;;5.85;4.20;;;;;;;21.70;35.75;102347.16;4968581;28;20037;-65
2022/06/02 09:46:35;;;;;;;6.78;4.30;;;;;;;22.42;37.89;102354.38;4969417;28;20129;-65
2022/06/02 09:49:04;;;;;;;6.68;4.95;;;;;;;22.75;37.59;102345.97;4961328;28;20038;-66
2022/06/02 09:51:50;;;;;;;7.10;4.20;;;;;;;23.46;34.27;102344.03;4962078;28;20088;-65
2022/06/02 09:54:35;;;;;;;6.45;4.40;;;;;;;22.88;34.44;102346.69;4949730;28;20717;-65
2022/06/02 10:00:38;;;;;;;5.50;4.00;;;;;;;23.49;33.90;102338.66;4956038;28;20080;-65
2022/06/02 10:03:25;;;;;;;7.20;4.45;;;;;;;23.38;33.21;102338.81;4950911;28;20694;-65
2022/06/02 10:06:06;;;;;;;7.70;4.60;;;;;;;23.05;34.93;102334.03;4962607;28;20182;-66
2022/06/02 10:08:58;;;;;;;5.53;3.80;;;;;;;23.36;33.39;102329.97;4966604;28;20091;-64
2022/06/02 10:11:47;;;;;;;5.28;3.90;;;;;;;23.60;35.82;102335.84;4960487;28;20124;-66
2022/06/02 10:14:33;;;;;;;4.85;3.90;;;;;;;23.43;32.21;102326.31;4959557;28;20560;-66
2022/06/02 10:17:10;;;;;;;7.03;4.18;;;;;;;23.38;32.63;102325.50;4966884;28;20734;-66
2022/06/02 10:19:42;;;;;;;5.68;3.72;;;;;;;23.24;32.67;102334.59;4964727;28;20424;-65
2022/06/02 10:22:30;;;;;;;6.15;3.70;;;;;;;22.98;32.91;102319.97;4960952;28;20040;-66
2022/06/02 10:25:14;;;;;;;6.60;4.00;;;;;;;22.92;34.79;102321.81;4966990;28;20084;-67
2022/06/02 10:28:41;;;;;;;4.80;3.75;;;;;;;22.92;32.96;102328.03;4968514;28;20038;-65
2022/06/02 10:31:24;;;;;;;6.00;4.10;;;;;;;22.68;33.32;102320.38;4971397;28;20072;-64
2022/06/02 10:34:34;;;;;;;4.90;4.05;;;;;;;22.11;34.22;102308.69;4975993;28;20403;-65
2022/06/02 10:37:18;;;;;;;6.38;3.80;;;;;;;22.78;34.09;102308.72;4970741;28;20065;-64
2022/06/02 10:40:13;;;;;;;7.93;4.25;;;;;;;22.21;32.73;102307.66;4956561;28;20037;-64
2022/06/02 10:43:13;;;;;;;7.05;4.20;;;;;;;21.84;33.64;102294.78;4948084;28;20122;-66
2022/06/02 10:46:18;;;;;;;7.35;5.35;;;;;;;22.54;33.82;102311.69;4966517;28;20478;-65
2022/06/02 10:49:08;;;;;;;6.40;4.25;;;;;;;22.56;33.28;102304.59;4929817;28;20051;-65
2022/06/02 10:52:15;;;;;;;7.05;4.03;;;;;;;22.68;35.87;102309.72;4964019;28;20543;-66
2022/06/02 10:54:50;;;;;;;3.85;3.13;;;;;;;22.69;35.31;102299.97;4964525;28;20579;-64
2022/06/02 10:57:47;;;;;;;4.05;3.40;;;;;;;22.34;32.35;102300.44;4969660;28;20041;-65
2022/06/02 11:00:20;;;;;;;4.82;3.38;;;;;;;23.08;30.60;102294.06;4956336;28;20345;-65
2022/06/02 11:03:08;;;;;;;6.10;4.50;;;;;;;22.49;32.15;102294.94;4965784;28;20255;-66
2022/06/02 11:05:59;;;;;;;4.53;3.80;;;;;;;23.25;33.72;102296.47;4970422;28;20045;-67
2022/06/02 11:09:00;;;;;;;5.82;4.55;;;;;;;23.14;36.63;102288.66;4961494;28;20125;-67
2022/06/02 11:11:36;;;;;;;5.40;4.40;;;;;;;22.91;34.38;102296.13;4948031;28;20545;-65
2022/06/02 11:14:20;;;;;;;7.28;4.60;;;;;;;22.98;33.52;102285.38;4955582;28;20099;-66
2022/06/02 11:17:04;;;;;;;6.15;4.50;;;;;;;23.26;34.81;102287.56;4964520;28;20123;-66
2022/06/02 11:19:40;;;;;;;;;;;;;;;23.15;33.90;102300.19;4962675;28;20487;-66
2022/06/02 11:22:18;;;;;;;8.43;5.20;;;;;;;23.19;32.40;102296.56;4945804;28;19925;-67
2022/06/02 11:25:26;;;;;;;5.75;3.72;;;;;;;23.88;34.74;102285.59;4951915;28;20038;-67
2022/06/02 11:27:58;;;;;;;4.70;3.40;;;;;;;24.06;32.62;102285.25;4956470;28;20413;-65
2022/06/02 11:30:50;;;;;;;6.82;4.88;;;;;;;23.34;32.39;102291.88;4945712;28;20271;-64
2022/06/02 11:33:49;;;;;;;8.38;4.88;;;;;;;23.68;32.37;102284.19;4962368;28;20077;-66
2022/06/02 11:36:53;;;;;;;7.57;4.32;;;;;;;23.67;32.57;102294.84;4949401;28;20180;-65
2022/06/02 11:39:27;;;;;;;6.93;4.37;;;;;;;23.78;33.44;102285.78;4952068;28;20527;-65
2022/06/02 11:42:26;;;;;;;7.30;4.60;;;;;;;22.75;35.08;102286.63;4954059;28;20837;-64
2022/06/02 11:45:02;;;;;;;6.72;4.93;;;;;;;22.80;34.23;102282.13;4958211;28;20041;-65
2022/06/02 11:47:50;;;;;;;7.10;5.25;;;;;;;22.17;35.96;102284.69;4969170;28;20502;-64
2022/06/02 11:50:43;;;;;;;5.43;4.55;;;;;;;22.53;35.87;102289.53;4950084;28;20464;-65
2022/06/02 11:53:24;;;;;;;8.23;5.07;;;;;;;21.87;35.36;102280.59;4955962;28;20408;-65
2022/06/02 11:56:10;;;;;;;6.28;4.38;;;;;;;22.60;36.08;102290.34;4961069;28;20137;-65
2022/06/02 11:58:51;;;;;;;6.05;4.55;;;;;;;22.58;33.48;102285.03;4960609;28;20453;-67
2022/06/02 12:01:35;;;;;;;5.07;3.90;;;;;;;22.82;34.47;102285.63;4956498;28;20050;-65
2022/06/02 12:04:39;;;;;;;5.30;4.00;;;;;;;22.46;33.21;102279.88;4948263;28;20073;-64
2022/06/02 12:07:42;;;;;;;5.13;3.30;;;;;;;22.80;35.46;102277.69;4910719;28;20045;-65
2022/06/02 12:10:37;;;;;;;7.13;4.68;;;;;;;21.71;34.61;102269.25;4944154;28;20145;-66
2022/06/02 12:13:21;;;;;;;;;;;;;;;21.92;34.94;102277.88;4964820;28;20295;-65
2022/06/02 12:16:16;;;;;;;6.70;4.63;;;;;;;21.93;35.26;102269.03;4962784;28;20531;-64
2022/06/02 12:18:53;;;;;;;7.57;5.22;;;;;;;21.97;35.06;102274.31;4954614;28;20049;-66
2022/06/02 12:21:18;;;;;;;6.88;4.90;;;;;;;22.10;34.47;102264.41;4957334;28;21003;-65
2022/06/02 12:24:02;;;;;;;6.90;5.38;;;;;;;21.90;34.42;102264.63;4961100;28;20041;-64
2022/06/02 12:26:56;;;;;;;5.82;4.43;;;;;;;22.30;36.23;102265.06;4960016;28;20066;-64
2022/06/02 12:29:44;;;;;;;5.80;3.90;;;;;;;22.43;34.36;102266.66;4955543;28;20053;-64
2022/06/02 12:32:50;;;;;;;6.57;4.65;;;;;;;22.56;34.81;102262.94;4946480;28;20053;-66
2022/06/02 12:35:35;;;;;;;5.78;4.40;;;;;;;22.57;33.89;102250.50;4955347;28;20097;-66
2022/06/02 12:38:25;;;;;;;7.30;5.05;;;;;;;22.82;32.90;102256.38;4949460;28;20274;-66
2022/06/02 12:41:06;;;;;;;5.22;4.00;;;;;;;22.97;32.59;102253.47;4951828;28;20050;-65
2022/06/02 12:43:44;;;;;;;7.75;4.40;;;;;;;22.56;33.29;102246.09;4960444;28;20070;-66
2022/06/02 12:46:35;;;;;;;5.68;3.90;;;;;;;22.90;35.79;102249.16;4952472;28;20054;-64
2022/06/02 12:49:41;;;;;;;9.65;5.40;;;;;;;22.83;33.96;102244.81;4964721;28;20304;-64
2022/06/02 12:52:22;;;;;;;4.50;2.75;;;;;;;23.19;34.58;102246.88;4955080;28;20263;-65
2022/06/02 12:55:05;;;;;;;3.70;2.42;;;;;;;22.72;35.54;102239.69;4958948;28;20050;-63
2022/06/02 12:57:50;;;;;;;4.47;2.63;;;;;;;23.30;34.01;102249.34;4959567;28;20185;-63
2022/06/02 13:01:04;;;;;;;2.85;1.90;;;;;;;22.96;34.15;102235.75;4946404;28;20074;-64